createdAt,value
2017-12-01T00:01:47.262Z,61.89
2017-12-01T00:04:13.632Z,61.89
2017-12-01T00:06:39.898Z,61.83
2017-12-01T00:09:06.059Z,61.87
2017-12-01T00:11:32.276Z,61.72
2017-12-01T00:13:58.464Z,61.76
2017-12-01T00:16:24.656Z,61.71
2017-12-01T00:18:50.961Z,62.16
2017-12-01T00:21:17.167Z,62.56
2017-12-01T00:23:43.389Z,62.75
2017-12-01T00:26:09.878Z,62.93
2017-12-01T00:28:36.434Z,63.16
2017-12-01T00:31:02.718Z,63.43
2017-12-01T00:33:28.952Z,63.38
2017-12-01T00:35:55.162Z,63.47
2017-12-01T00:38:21.340Z,63.20
2017-12-01T00:40:47.569Z,63.17
2017-12-01T00:43:13.764Z,62.92
2017-12-01T00:45:40.294Z,62.81
2017-12-01T00:48:06.731Z,63.03
2017-12-01T00:50:33.250Z,63.04
2017-12-01T00:52:59.786Z,62.59
2017-12-01T00:55:25.992Z,62.61
2017-12-01T00:57:52.569Z,62.21
2017-12-01T01:00:19.287Z,61.86
2017-12-01T01:02:45.846Z,61.84
2017-12-01T01:05:12.468Z,61.55
2017-12-01T01:07:39.244Z,61.50
2017-12-01T01:10:05.441Z,61.59
2017-12-01T01:12:31.869Z,61.19
2017-12-01T01:14:58.236Z,60.93
2017-12-01T01:17:24.754Z,60.86
2017-12-01T01:19:50.959Z,60.37
2017-12-01T01:22:17.161Z,60.54
2017-12-01T01:24:43.424Z,60.41
2017-12-01T01:27:09.652Z,60.43
2017-12-01T01:29:35.851Z,60.29
2017-12-01T01:32:02.281Z,60.22
2017-12-01T01:34:28.519Z,60.14
2017-12-01T01:36:54.988Z,60.12
2017-12-01T01:39:21.203Z,60.18
2017-12-01T01:41:47.442Z,60.21
2017-12-01T01:44:13.866Z,60.32
2017-12-01T01:46:40.089Z,60.05
2017-12-01T01:49:06.281Z,60.33
2017-12-01T01:51:32.472Z,58.45
2017-12-01T01:53:58.665Z,57.08
2017-12-01T01:56:24.845Z,59.21
2017-12-01T01:58:51.044Z,58.92
2017-12-01T02:01:17.261Z,60.73
2017-12-01T02:03:43.717Z,62.44
2017-12-01T02:06:09.921Z,62.69
2017-12-01T02:08:36.121Z,63.33
2017-12-01T02:11:02.391Z,63.69
2017-12-01T02:13:28.606Z,65.22
2017-12-01T02:15:54.798Z,66.16
2017-12-01T02:18:21.018Z,66.68
2017-12-01T02:20:47.396Z,66.83
2017-12-01T02:23:13.586Z,67.21
2017-12-01T02:25:40.047Z,68.27
2017-12-01T02:28:06.233Z,67.54
2017-12-01T02:30:32.523Z,68.96
2017-12-01T02:32:58.759Z,69.66
2017-12-01T02:35:24.947Z,70.66
2017-12-01T02:37:51.130Z,71.86
2017-12-01T02:40:17.363Z,72.78
2017-12-01T02:42:43.543Z,73.61
2017-12-01T02:45:09.890Z,74.12
2017-12-01T02:47:36.105Z,74.32
2017-12-01T02:50:02.346Z,74.41
2017-12-01T02:52:28.543Z,74.81
2017-12-01T02:54:54.802Z,75.57
2017-12-01T02:57:21.013Z,76.22
2017-12-01T02:59:47.271Z,76.44
2017-12-01T03:02:13.695Z,76.75
2017-12-01T03:04:39.936Z,77.19
2017-12-01T03:07:06.142Z,77.36
2017-12-01T03:09:32.383Z,77.56
2017-12-01T03:11:58.621Z,77.57
2017-12-01T03:14:24.841Z,77.85
2017-12-01T03:16:51.283Z,78.71
2017-12-01T03:19:17.442Z,78.75
2017-12-01T03:21:43.725Z,79.24
2017-12-01T03:24:09.939Z,79.64
2017-12-01T03:26:36.125Z,80.43
2017-12-01T03:29:02.326Z,80.48
2017-12-01T03:31:28.562Z,81.17
2017-12-01T03:33:54.870Z,80.50
2017-12-01T03:36:21.045Z,80.33
2017-12-01T03:38:47.260Z,80.57
2017-12-01T03:41:13.429Z,80.37
2017-12-01T03:43:39.784Z,80.38
2017-12-01T03:46:06.005Z,81.04
2017-12-01T03:48:32.248Z,81.42
2017-12-01T03:50:58.484Z,81.79
2017-12-01T03:53:24.704Z,81.79
2017-12-01T03:55:50.897Z,81.99
2017-12-01T03:58:17.237Z,82.26
2017-12-01T04:00:43.452Z,82.24
2017-12-01T04:03:09.640Z,82.25
2017-12-01T04:05:36.236Z,82.78
2017-12-01T04:08:02.470Z,82.70
2017-12-01T04:10:28.690Z,82.98
2017-12-01T04:12:54.909Z,82.91
2017-12-01T04:15:21.154Z,82.86
2017-12-01T04:17:47.404Z,82.93
2017-12-01T04:20:13.616Z,82.71
2017-12-01T04:22:39.846Z,82.70
2017-12-01T04:25:06.037Z,82.93
2017-12-01T04:27:32.310Z,82.91
2017-12-01T04:29:58.550Z,82.86
2017-12-01T04:32:24.754Z,82.66
2017-12-01T04:34:50.986Z,82.75
2017-12-01T04:37:17.651Z,82.68
2017-12-01T04:39:43.865Z,82.73
2017-12-01T04:42:10.057Z,82.88
2017-12-01T04:44:36.332Z,82.75
2017-12-01T04:47:02.534Z,83.25
2017-12-01T04:49:28.778Z,83.50
2017-12-01T04:51:54.995Z,83.64
2017-12-01T04:54:21.218Z,83.44
2017-12-01T04:56:47.475Z,83.29
2017-12-01T04:59:13.888Z,83.60
2017-12-01T05:01:40.157Z,84.17
2017-12-01T05:04:06.374Z,84.05
2017-12-01T05:06:32.599Z,84.42
2017-12-01T05:08:58.797Z,83.82
2017-12-01T05:11:25.050Z,83.73
2017-12-01T05:13:51.261Z,83.46
2017-12-01T05:16:17.505Z,82.97
2017-12-01T05:18:43.685Z,83.52
2017-12-01T05:21:09.921Z,83.61
2017-12-01T05:23:36.176Z,83.80
2017-12-01T05:26:02.396Z,83.61
2017-12-01T05:28:28.833Z,83.36
2017-12-01T05:30:55.076Z,83.29
2017-12-01T05:33:21.368Z,83.79
2017-12-01T05:35:47.738Z,83.81
2017-12-01T05:38:13.932Z,84.25
2017-12-01T05:40:40.196Z,83.74
2017-12-01T05:43:06.812Z,83.38
2017-12-01T05:45:33.250Z,83.37
2017-12-01T05:47:59.508Z,83.21
2017-12-01T05:50:25.726Z,82.43
2017-12-01T05:52:51.908Z,82.54
2017-12-01T05:55:18.181Z,82.31
2017-12-01T05:57:44.402Z,82.83
2017-12-01T06:00:10.598Z,83.12
2017-12-01T06:02:37.044Z,82.83
2017-12-01T06:05:03.265Z,82.49
2017-12-01T06:07:29.454Z,82.47
2017-12-01T06:09:55.759Z,82.76
2017-12-01T06:12:22.199Z,82.29
2017-12-01T06:14:48.397Z,81.89
2017-12-01T06:17:14.818Z,82.14
2017-12-01T06:19:41.083Z,81.50
2017-12-01T06:22:07.294Z,81.18
2017-12-01T06:24:33.468Z,80.69
2017-12-01T06:26:59.778Z,80.97
2017-12-01T06:29:26.211Z,82.37
2017-12-01T06:31:52.400Z,85.44
2017-12-01T06:34:18.620Z,81.30
2017-12-01T06:36:44.890Z,80.67
2017-12-01T06:39:11.096Z,80.77
2017-12-01T06:41:37.308Z,79.88
2017-12-01T06:44:03.582Z,80.50
2017-12-01T06:46:29.784Z,79.49
2017-12-01T06:48:56.087Z,79.96
2017-12-01T06:51:22.304Z,79.35
2017-12-01T06:53:48.690Z,78.86
2017-12-01T06:56:14.873Z,77.54
2017-12-01T06:58:41.068Z,77.77
2017-12-01T07:01:07.248Z,77.84
2017-12-01T07:03:33.810Z,77.28
2017-12-01T07:06:00.059Z,77.74
2017-12-01T07:08:26.256Z,77.66
2017-12-01T07:10:52.439Z,77.66
2017-12-01T07:13:18.721Z,79.11
2017-12-01T07:15:44.939Z,77.54
2017-12-01T07:18:11.194Z,76.14
2017-12-01T07:20:37.406Z,76.15
2017-12-01T07:23:03.641Z,77.00
2017-12-01T07:25:29.819Z,77.47
2017-12-01T07:27:56.111Z,77.31
2017-12-01T07:30:22.329Z,78.24
2017-12-01T07:32:48.570Z,76.81
2017-12-01T07:35:14.980Z,77.54
2017-12-01T07:37:41.203Z,76.72
2017-12-01T07:40:07.398Z,76.52
2017-12-01T07:42:33.593Z,76.24
2017-12-01T07:44:59.825Z,74.93
2017-12-01T07:47:26.337Z,75.11
2017-12-01T07:49:52.558Z,75.60
2017-12-01T07:52:19.000Z,75.85
2017-12-01T07:54:45.239Z,76.04
2017-12-01T07:57:11.440Z,76.34
2017-12-01T07:59:37.661Z,76.22
2017-12-01T08:02:03.862Z,76.13
2017-12-01T08:04:30.140Z,76.16
2017-12-01T08:06:56.340Z,76.41
2017-12-01T08:09:22.596Z,76.99
2017-12-01T08:11:48.842Z,77.81
2017-12-01T08:14:15.275Z,77.61
2017-12-01T08:16:41.504Z,77.50
2017-12-01T08:19:07.679Z,77.44
2017-12-01T08:21:33.960Z,77.24
2017-12-01T08:24:00.174Z,76.79
2017-12-01T08:26:26.430Z,76.23
2017-12-01T08:28:52.836Z,76.25
2017-12-01T08:31:19.037Z,76.26
2017-12-01T08:33:45.209Z,75.84
2017-12-01T08:36:11.702Z,75.01
2017-12-01T08:38:37.971Z,75.55
2017-12-01T08:41:04.192Z,74.59
2017-12-01T08:43:30.624Z,74.35
2017-12-01T08:45:57.066Z,74.96
2017-12-01T08:48:23.281Z,75.32
2017-12-01T08:50:49.510Z,75.05
2017-12-01T08:53:15.725Z,75.47
2017-12-01T08:55:41.983Z,75.10
2017-12-01T08:58:08.352Z,75.11
2017-12-01T09:00:34.624Z,75.49
2017-12-01T09:03:00.811Z,76.25
2017-12-01T09:05:27.100Z,76.46
2017-12-01T09:07:53.292Z,76.81
2017-12-01T09:10:19.763Z,77.31
2017-12-01T09:12:46.380Z,77.45
2017-12-01T09:15:12.582Z,77.37
2017-12-01T09:17:38.857Z,77.48
2017-12-01T09:20:05.229Z,77.11
2017-12-01T09:22:31.705Z,76.60
2017-12-01T09:24:57.908Z,76.94
2017-12-01T09:27:24.195Z,77.19
2017-12-01T09:29:50.390Z,77.74
2017-12-01T09:32:16.579Z,78.03
2017-12-01T09:34:42.805Z,78.11
2017-12-01T09:37:09.931Z,78.14
2017-12-01T09:39:36.556Z,77.53
2017-12-01T09:42:03.177Z,77.55
2017-12-01T09:44:29.408Z,77.59
2017-12-01T09:46:55.656Z,77.52
2017-12-01T09:49:22.280Z,77.49
2017-12-01T09:51:48.937Z,77.57
2017-12-01T09:54:15.192Z,78.43
2017-12-01T09:56:41.446Z,77.92
2017-12-01T09:59:08.138Z,77.86
2017-12-01T10:01:34.328Z,77.96
2017-12-01T10:04:00.999Z,78.08
2017-12-01T10:06:27.524Z,78.20
2017-12-01T10:08:53.913Z,78.57
2017-12-01T10:11:20.268Z,78.32
2017-12-01T10:13:46.467Z,77.85
2017-12-01T10:16:12.661Z,77.82
2017-12-01T10:18:38.979Z,77.86
2017-12-01T10:21:05.177Z,78.13
2017-12-01T10:23:31.418Z,79.12
2017-12-01T10:25:57.694Z,79.26
2017-12-01T10:28:23.881Z,80.25
2017-12-01T10:30:50.071Z,79.44
2017-12-01T10:33:16.298Z,78.50
2017-12-01T10:35:42.473Z,78.65
2017-12-01T10:38:08.862Z,79.08
2017-12-01T10:40:35.238Z,79.14
2017-12-01T10:43:01.673Z,78.58
2017-12-01T10:45:27.848Z,78.79
2017-12-01T10:47:54.105Z,78.58
2017-12-01T10:50:20.343Z,77.93
2017-12-01T10:52:46.533Z,78.70
2017-12-01T10:55:12.818Z,79.29
2017-12-01T10:57:39.043Z,78.49
2017-12-01T11:00:05.229Z,78.26
2017-12-01T11:02:31.445Z,78.95
2017-12-01T11:04:57.627Z,78.68
2017-12-01T11:07:23.960Z,78.87
2017-12-01T11:09:50.190Z,79.31
2017-12-01T11:12:16.409Z,78.98
2017-12-01T11:14:42.645Z,78.28
2017-12-01T11:17:08.877Z,77.88
2017-12-01T11:19:35.101Z,78.58
2017-12-01T11:22:01.330Z,78.68
2017-12-01T11:24:27.782Z,78.94
2017-12-01T11:26:54.129Z,78.99
2017-12-01T11:29:20.427Z,79.15
2017-12-01T11:31:46.795Z,79.05
2017-12-01T11:34:13.089Z,79.55
2017-12-01T11:36:39.307Z,79.59
2017-12-01T11:39:05.688Z,79.90
2017-12-01T11:41:31.980Z,78.86
2017-12-01T11:43:58.155Z,79.17
2017-12-01T11:46:24.399Z,80.38
2017-12-01T11:48:50.660Z,80.71
2017-12-01T12:05:10.078Z,80.04
2017-12-01T12:07:36.652Z,78.85
2017-12-01T12:10:02.839Z,78.97
2017-12-01T12:12:29.132Z,79.45
2017-12-01T12:14:55.547Z,79.54
2017-12-01T12:17:21.791Z,79.56
2017-12-01T12:19:48.404Z,79.57
2017-12-01T12:22:14.648Z,79.60
2017-12-01T12:24:40.829Z,80.45
2017-12-01T12:27:07.049Z,80.34
2017-12-01T12:29:33.347Z,81.80
2017-12-01T12:31:59.530Z,82.40
2017-12-01T12:34:25.740Z,82.96
2017-12-01T12:36:52.036Z,82.76
2017-12-01T12:39:18.250Z,82.65
2017-12-01T12:41:44.494Z,83.36
2017-12-01T12:44:10.663Z,83.30
2017-12-01T12:46:36.846Z,83.47
2017-12-01T12:49:03.073Z,83.01
2017-12-01T12:51:29.597Z,83.19
2017-12-01T12:53:55.786Z,83.06
2017-12-01T12:56:22.070Z,83.25
2017-12-01T12:58:48.239Z,83.21
2017-12-01T13:01:14.519Z,83.06
2017-12-01T13:03:40.950Z,83.14
2017-12-01T13:06:07.145Z,82.89
2017-12-01T13:08:33.411Z,83.21
2017-12-01T13:10:59.842Z,82.79
2017-12-01T13:13:26.055Z,82.71
2017-12-01T13:15:52.294Z,82.80
2017-12-01T13:18:18.523Z,82.69
2017-12-01T13:20:44.703Z,82.90
2017-12-01T13:23:10.881Z,83.40
2017-12-01T13:25:37.201Z,83.39
2017-12-01T13:28:03.380Z,83.19
2017-12-01T13:30:29.560Z,83.81
2017-12-01T13:32:55.889Z,83.15
2017-12-01T13:35:22.139Z,83.81
2017-12-01T13:37:48.345Z,84.27
2017-12-01T13:40:14.557Z,85.05
2017-12-01T13:42:40.804Z,85.05
2017-12-01T13:45:07.048Z,85.44
2017-12-01T13:47:33.678Z,86.16
2017-12-01T13:49:59.903Z,86.17
2017-12-01T13:52:26.127Z,86.56
2017-12-01T13:54:52.351Z,86.70
2017-12-01T13:57:18.532Z,86.86
2017-12-01T13:59:44.683Z,87.00
2017-12-01T14:02:11.065Z,87.35
2017-12-01T14:04:37.254Z,87.58
2017-12-01T14:07:03.521Z,87.36
2017-12-01T14:09:30.134Z,87.36
2017-12-01T14:11:56.311Z,88.04
2017-12-01T14:14:22.606Z,88.50
2017-12-01T14:16:49.036Z,88.59
2017-12-01T14:19:15.274Z,88.64
2017-12-01T14:21:41.508Z,88.73
2017-12-01T14:24:07.942Z,89.04
2017-12-01T14:26:34.371Z,89.76
2017-12-01T14:29:00.601Z,90.09
2017-12-01T14:31:26.796Z,90.18
2017-12-01T14:33:53.047Z,90.02
2017-12-01T14:36:19.214Z,89.97
2017-12-01T14:38:45.495Z,90.40
2017-12-01T14:41:11.681Z,90.56
2017-12-01T14:43:37.973Z,90.62
2017-12-01T14:46:04.386Z,90.53
2017-12-01T14:48:30.624Z,90.67
2017-12-01T14:50:56.793Z,90.97
2017-12-01T14:53:23.008Z,91.35
2017-12-01T14:55:49.186Z,91.67
2017-12-01T14:58:15.364Z,91.64
2017-12-01T15:00:41.717Z,91.39
2017-12-01T15:03:07.988Z,91.25
2017-12-01T15:05:34.160Z,91.24
2017-12-01T15:08:00.372Z,91.11
2017-12-01T15:10:26.544Z,91.43
2017-12-01T15:12:52.717Z,91.79
2017-12-01T15:15:19.132Z,92.09
2017-12-01T15:17:45.298Z,92.22
2017-12-01T15:20:11.607Z,91.88
2017-12-01T15:22:37.822Z,91.59
2017-12-01T15:25:04.066Z,91.48
2017-12-01T15:27:30.258Z,92.02
2017-12-01T15:29:56.485Z,92.62
2017-12-01T15:32:22.734Z,92.95
2017-12-01T15:34:48.969Z,92.90
2017-12-01T15:37:15.186Z,92.94
2017-12-01T15:39:41.436Z,92.78
2017-12-01T15:42:07.622Z,92.82
2017-12-01T15:44:33.824Z,92.80
2017-12-01T15:47:00.132Z,92.65
2017-12-01T15:49:26.534Z,93.02
2017-12-01T15:51:52.989Z,93.42
2017-12-01T15:54:19.175Z,93.48
2017-12-01T15:56:45.602Z,93.44
2017-12-01T15:59:11.866Z,93.36
2017-12-01T16:01:38.054Z,93.41
2017-12-01T16:04:04.242Z,93.34
2017-12-01T16:06:30.464Z,93.31
2017-12-01T16:08:56.637Z,93.35
2017-12-01T16:11:22.826Z,93.45
2017-12-01T16:13:49.253Z,93.82
2017-12-01T16:16:15.476Z,93.99
2017-12-01T16:18:41.703Z,93.79
2017-12-01T16:21:08.144Z,93.94
2017-12-01T16:23:34.323Z,94.25
2017-12-01T16:26:00.505Z,94.13
2017-12-01T16:28:26.712Z,93.98
2017-12-01T16:30:52.918Z,93.88
2017-12-01T16:33:19.110Z,94.17
2017-12-01T16:35:45.516Z,94.12
2017-12-01T16:38:11.743Z,93.80
2017-12-01T16:40:37.924Z,93.85
2017-12-01T16:43:04.153Z,93.95
2017-12-01T16:45:30.431Z,93.94
2017-12-01T16:47:56.643Z,93.35
2017-12-01T16:50:22.844Z,93.47
2017-12-01T16:52:49.104Z,93.70
2017-12-01T16:55:15.553Z,93.65
2017-12-01T16:57:42.013Z,93.74
2017-12-01T17:00:08.402Z,93.85
2017-12-01T17:02:34.855Z,93.74
2017-12-01T17:05:01.261Z,93.38
2017-12-01T17:07:27.450Z,93.53
2017-12-01T17:09:53.757Z,93.41
2017-12-01T17:12:19.976Z,93.34
2017-12-01T17:14:46.402Z,93.18
2017-12-01T17:17:12.577Z,93.67
2017-12-01T17:19:38.854Z,93.91
2017-12-01T17:22:05.302Z,93.90
2017-12-01T17:24:31.473Z,93.76
2017-12-01T17:26:57.686Z,93.81
2017-12-01T17:29:23.856Z,93.75
2017-12-01T17:31:50.208Z,93.61
2017-12-01T17:34:16.826Z,93.57
2017-12-01T17:36:43.069Z,93.55
2017-12-01T17:39:09.254Z,93.31
2017-12-01T17:41:35.471Z,92.93
2017-12-01T17:44:01.634Z,93.21
2017-12-01T17:46:27.796Z,93.26
2017-12-01T17:48:54.022Z,93.09
2017-12-01T17:51:20.202Z,93.68
2017-12-01T17:53:46.374Z,93.67
2017-12-01T17:56:12.572Z,93.62
2017-12-01T17:58:38.742Z,93.92
2017-12-01T18:01:05.311Z,93.96
2017-12-01T18:03:31.504Z,93.84
2017-12-01T18:05:57.964Z,93.50
2017-12-01T18:08:24.127Z,93.53
2017-12-01T18:10:50.324Z,93.47
2017-12-01T18:13:16.503Z,93.65
2017-12-01T18:15:42.660Z,93.52
2017-12-01T18:18:08.878Z,93.50
2017-12-01T18:20:35.050Z,93.33
2017-12-01T18:23:01.393Z,93.30
2017-12-01T18:25:27.594Z,93.17
2017-12-01T18:27:53.855Z,93.12
2017-12-01T18:30:20.047Z,93.19
2017-12-01T18:32:46.285Z,93.27
2017-12-01T18:35:12.469Z,93.43
2017-12-01T18:37:38.644Z,93.45
2017-12-01T18:40:04.858Z,93.51
2017-12-01T18:42:31.028Z,93.56
2017-12-01T18:44:57.205Z,93.62
2017-12-01T18:47:23.512Z,93.78
2017-12-01T18:49:49.922Z,93.76
2017-12-01T18:52:16.412Z,93.93
2017-12-01T18:54:42.644Z,94.06
2017-12-01T18:57:08.807Z,94.01
2017-12-01T18:59:34.971Z,93.68
2017-12-01T19:02:01.180Z,93.31
2017-12-01T19:04:27.372Z,92.73
2017-12-01T19:06:53.684Z,92.58
2017-12-01T19:09:20.160Z,92.58
2017-12-01T19:11:46.378Z,92.52
2017-12-01T19:14:12.559Z,92.43
2017-12-01T19:16:38.773Z,92.47
2017-12-01T19:19:04.962Z,92.79
2017-12-01T19:21:31.120Z,93.09
2017-12-01T19:23:57.335Z,93.58
2017-12-01T19:26:23.507Z,94.02
2017-12-01T19:28:49.668Z,94.13
2017-12-01T19:31:15.868Z,94.24
2017-12-01T19:33:42.029Z,94.27
2017-12-01T19:36:08.198Z,94.32
2017-12-01T19:38:34.502Z,94.63
2017-12-01T19:41:00.902Z,94.79
2017-12-01T19:43:27.078Z,94.76
2017-12-01T19:45:53.396Z,94.59
2017-12-01T19:48:19.622Z,94.74
2017-12-01T19:50:45.808Z,94.58
2017-12-01T19:53:12.009Z,94.44
2017-12-01T19:55:38.212Z,94.18
2017-12-01T19:58:04.373Z,94.00
2017-12-01T20:00:30.778Z,93.86
2017-12-01T20:02:56.946Z,93.71
2017-12-01T20:05:23.224Z,94.03
2017-12-01T20:07:49.508Z,94.18
2017-12-01T20:10:15.763Z,94.50
2017-12-01T20:12:41.929Z,94.53
2017-12-01T20:15:08.245Z,94.55
2017-12-01T20:17:34.473Z,94.28
2017-12-01T20:20:00.695Z,94.27
2017-12-01T20:22:26.894Z,94.24
2017-12-01T20:24:53.162Z,94.21
2017-12-01T20:27:19.614Z,94.37
2017-12-01T20:29:46.007Z,94.52
2017-12-01T20:32:12.185Z,94.49
2017-12-01T20:34:38.469Z,94.47
2017-12-01T20:37:04.715Z,94.36
2017-12-01T20:39:30.881Z,94.51
2017-12-01T20:41:57.050Z,94.43
2017-12-01T20:44:23.428Z,94.85
2017-12-01T20:46:49.597Z,94.94
2017-12-01T20:49:15.775Z,95.06
2017-12-01T20:51:41.976Z,94.90
2017-12-01T20:54:08.143Z,95.07
2017-12-01T20:56:34.529Z,95.09
2017-12-01T20:59:00.709Z,95.44
2017-12-01T21:01:26.867Z,95.67
2017-12-01T21:03:53.056Z,95.71
2017-12-01T21:06:19.257Z,95.74
2017-12-01T21:08:45.483Z,95.68
2017-12-01T21:11:11.654Z,95.72
2017-12-01T21:13:37.859Z,95.77
2017-12-01T21:16:04.037Z,96.00
2017-12-01T21:18:30.206Z,95.99
2017-12-01T21:20:56.431Z,95.83
2017-12-01T21:23:22.650Z,96.07
2017-12-01T21:25:48.853Z,96.12
2017-12-01T21:28:15.096Z,96.17
2017-12-01T21:30:41.335Z,96.30
2017-12-01T21:33:07.616Z,96.55
2017-12-01T21:35:33.841Z,96.41
2017-12-01T21:38:00.023Z,96.82
2017-12-01T21:40:26.260Z,96.64
2017-12-01T21:42:52.467Z,96.58
2017-12-01T21:45:18.759Z,96.45
2017-12-01T21:47:44.945Z,96.30
2017-12-01T21:50:11.357Z,96.13
2017-12-01T21:52:37.507Z,96.19
2017-12-01T21:55:03.671Z,96.69
2017-12-01T21:57:29.872Z,96.73
2017-12-01T21:59:56.046Z,97.01
2017-12-01T22:02:22.352Z,97.06
2017-12-01T22:04:48.828Z,97.33
2017-12-01T22:07:15.013Z,97.23
2017-12-01T22:09:41.401Z,97.28
2017-12-01T22:12:07.825Z,97.02
2017-12-01T22:14:34.046Z,97.00
2017-12-01T22:17:00.295Z,96.92
2017-12-01T22:19:26.527Z,96.53
2017-12-01T22:21:52.814Z,96.30
2017-12-01T22:24:18.977Z,96.32
2017-12-01T22:26:45.183Z,96.44
2017-12-01T22:29:11.335Z,96.54
2017-12-01T22:31:37.507Z,96.57
2017-12-01T22:34:03.696Z,96.42
2017-12-01T22:36:29.854Z,96.58
2017-12-01T22:38:56.023Z,96.82
2017-12-01T22:41:22.378Z,96.60
2017-12-01T22:43:48.531Z,96.42
2017-12-01T22:46:14.810Z,96.30
2017-12-01T22:48:41.170Z,95.92
2017-12-01T22:51:07.350Z,95.65
2017-12-01T22:53:33.511Z,95.77
2017-12-01T22:55:59.700Z,95.89
2017-12-01T22:58:25.852Z,95.74
2017-12-01T23:00:52.201Z,95.69
2017-12-01T23:03:18.396Z,95.33
2017-12-01T23:05:44.580Z,95.20
2017-12-01T23:08:10.742Z,95.20
2017-12-01T23:10:37.055Z,95.04
2017-12-01T23:13:03.237Z,94.64
2017-12-01T23:15:29.405Z,94.53
2017-12-01T23:17:55.674Z,94.30
2017-12-01T23:20:21.830Z,93.94
2017-12-01T23:22:48.013Z,94.00
2017-12-01T23:25:14.276Z,94.22
2017-12-01T23:27:40.514Z,94.24
2017-12-01T23:30:06.724Z,94.27
2017-12-01T23:32:32.941Z,94.40
2017-12-01T23:34:59.182Z,94.50
2017-12-01T23:37:25.357Z,94.44
2017-12-01T23:39:51.658Z,94.18
2017-12-01T23:42:17.833Z,93.98
2017-12-01T23:44:44.088Z,93.83
2017-12-01T23:47:10.400Z,93.82
2017-12-01T23:49:36.769Z,93.97
2017-12-01T23:52:02.936Z,94.33
2017-12-01T23:54:29.142Z,94.09
2017-12-01T23:56:55.305Z,94.03
2017-12-01T23:59:21.469Z,93.82
